»·PEaware :: WAT169 KLAS-KABQ

WAT169 :: KLAS-KABQ

FLIGHT INFORMATION

Flight Status: Arrived
Operator:
Walker Air Transport
More flights by this operator :: More flights under this callsign
Pilot: Marty P. (27464)
Aircraft: BOEING 737-800
(B738)
More flights by this aircraft type
Origin: KLAS McCarran Intl
United States
Destination: KABQ Albuquerque Intl Sunport
United States
More flights between these airports :: More routes between these airports
Route: +COWBY8 GUP LOWBO3
File this flight plan on PilotEdge
Remarks:
Altitude:
(Current/Filed)
37,000ft
Speed:
(Current/Filed)
480kts
Departed: 18-Oct-20 11:22 AM
Arrived: 18-Oct-20 12:27 PM
Distance/Time
Traveled:
421nm/1:05
Distance/Time
To Go:
Arrived

Flight Plot

Page will automatically refresh every two minutes.

Flight plan parsing failed; only flown route is shown


Map Options




Map Legend


Flown Route
Filed Route
Departure Airport
Arrival Airport
Navaid (VOR, NDB)
Fix

Horizontal Profiles

Position Reports

Time Latitude Longitude Heading Altitude Ground
Speed
18-Oct-20 10:49 36.081370 -115.147869 65 2099ft 0kts
18-Oct-20 10:50 36.081370 -115.147869 65 2099ft 0kts
18-Oct-20 10:51 36.081370 -115.147869 65 2099ft 0kts
18-Oct-20 10:52 36.081370 -115.147869 65 2099ft 0kts
18-Oct-20 10:53 36.081370 -115.147869 65 2099ft 0kts
18-Oct-20 10:54 36.081370 -115.147869 65 2099ft 0kts
18-Oct-20 10:55 36.081370 -115.147869 65 2099ft 0kts
18-Oct-20 10:56 36.081370 -115.147869 65 2099ft 0kts
18-Oct-20 10:57 36.081370 -115.147869 65 2099ft 0kts
18-Oct-20 10:58 36.081370 -115.147869 65 2099ft 0kts
18-Oct-20 10:59 36.081370 -115.147869 65 2099ft 0kts
18-Oct-20 11:00 36.081370 -115.147869 65 2099ft 0kts
18-Oct-20 11:01 36.081370 -115.147869 65 2099ft 0kts
18-Oct-20 11:02 36.081370 -115.147869 65 2099ft 0kts
18-Oct-20 11:03 36.081370 -115.147869 65 2099ft 0kts
18-Oct-20 11:04 36.081370 -115.147869 65 2099ft 0kts
18-Oct-20 11:05 36.081370 -115.147869 65 2099ft 0kts
18-Oct-20 11:06 36.081369 -115.147869 65 2099ft 0kts
18-Oct-20 11:07 36.081297 -115.148066 65 2100ft 2kts
18-Oct-20 11:08 36.081430 -115.148717 150 2103ft 1kts
18-Oct-20 11:09 36.081519 -115.148768 156 2102ft 0kts
18-Oct-20 11:10 36.081519 -115.148768 156 2102ft 0kts
18-Oct-20 11:11 36.081210 -115.148599 156 2102ft 4kts
18-Oct-20 11:12 36.080688 -115.148308 156 2102ft 0kts
18-Oct-20 11:13 36.080688 -115.148307 156 2102ft 0kts
18-Oct-20 11:14 36.079153 -115.147427 155 2101ft 15kts
18-Oct-20 11:15 36.078267 -115.141175 89 2083ft 23kts
18-Oct-20 11:16 36.078268 -115.133685 89 2062ft 22kts
18-Oct-20 11:18 36.078276 -115.125280 90 2043ft 22kts
18-Oct-20 11:19 36.077691 -115.121817 128 2039ft 8kts
18-Oct-20 11:20 36.077160 -115.121307 165 2039ft 11kts
18-Oct-20 11:21 36.076433 -115.122068 271 2041ft 0kts
18-Oct-20 11:22 36.076419 -115.134455 270 2067ft 133kts
18-Oct-20 11:23 36.076963 -115.195464 270 3476ft 204kts
18-Oct-20 11:24 36.048719 -115.265657 206 5856ft 259kts
18-Oct-20 11:25 35.977700 -115.290566 185 9059ft 272kts
18-Oct-20 11:26 35.901239 -115.273231 153 11671ft 318kts
18-Oct-20 11:27 35.845156 -115.173183 106 12935ft 402kts
18-Oct-20 11:28 35.825634 -115.040714 86 16395ft 401kts
18-Oct-20 11:29 35.837289 -114.901226 82 18964ft 416kts
18-Oct-20 11:30 35.850737 -114.753629 82 20224ft 456kts
18-Oct-20 11:31 35.865013 -114.594972 82 22064ft 471kts
18-Oct-20 11:32 35.879427 -114.432380 83 23920ft 481kts
18-Oct-20 11:33 35.893876 -114.266952 83 25510ft 491kts
18-Oct-20 11:33 35.906021 -114.125858 83 26818ft 496kts
18-Oct-20 11:35 35.914876 -113.928922 93 29002ft 492kts
18-Oct-20 11:36 35.898684 -113.762557 99 30784ft 487kts
18-Oct-20 11:36 35.879209 -113.625160 100 31890ft 490kts
18-Oct-20 11:38 35.849841 -113.434290 100 33659ft 485kts
18-Oct-20 11:38 35.828559 -113.299742 101 35014ft 477kts
18-Oct-20 11:40 35.798665 -113.113232 102 36406ft 475kts
18-Oct-20 11:40 35.777207 -112.980785 102 37210ft 475kts
18-Oct-20 11:42 35.746098 -112.790593 102 37320ft 497kts
18-Oct-20 11:42 35.722914 -112.650103 102 37320ft 507kts
18-Oct-20 11:43 35.694490 -112.479297 102 37319ft 513kts
18-Oct-20 11:44 35.665885 -112.308912 102 37314ft 493kts
18-Oct-20 11:45 35.638745 -112.148622 102 37325ft 482kts
18-Oct-20 11:46 35.611069 -111.986690 102 37322ft 484kts
18-Oct-20 11:47 35.592251 -111.824009 93 37326ft 484kts
18-Oct-20 11:48 35.586940 -111.658399 92 37334ft 486kts
18-Oct-20 11:49 35.582115 -111.492235 92 37338ft 486kts
18-Oct-20 11:50 35.577245 -111.326245 92 37332ft 487kts
18-Oct-20 11:51 35.572212 -111.159972 92 37256ft 488kts
18-Oct-20 11:52 35.566914 -110.992774 92 37228ft 499kts
18-Oct-20 11:53 35.561289 -110.823033 92 37226ft 488kts
18-Oct-20 11:54 35.555539 -110.656544 92 37229ft 490kts
18-Oct-20 11:55 35.549537 -110.489430 92 37228ft 490kts
18-Oct-20 11:56 35.543312 -110.322517 93 37228ft 489kts
18-Oct-20 11:57 35.536891 -110.155718 93 37228ft 490kts
18-Oct-20 11:58 35.530231 -109.989343 93 37262ft 489kts
18-Oct-20 11:59 35.523293 -109.822019 93 37283ft 491kts
18-Oct-20 12:00 35.516127 -109.654824 93 37283ft 491kts
18-Oct-20 12:01 35.508720 -109.487472 93 37283ft 492kts
18-Oct-20 12:02 35.501074 -109.319928 93 37283ft 492kts
18-Oct-20 12:03 35.493217 -109.152128 93 37283ft 493kts
18-Oct-20 12:04 35.485171 -108.985826 93 37284ft 493kts
18-Oct-20 12:05 35.475284 -108.816304 87 36101ft 501kts
18-Oct-20 12:06 35.479597 -108.647824 87 33601ft 496kts
18-Oct-20 12:07 35.484013 -108.477734 87 31095ft 498kts
18-Oct-20 12:08 35.483431 -108.308881 94 28592ft 494kts
18-Oct-20 12:09 35.473170 -108.142004 94 25843ft 485kts
18-Oct-20 12:10 35.462753 -107.980310 93 22828ft 463kts
18-Oct-20 12:11 35.452937 -107.832191 93 20256ft 404kts
18-Oct-20 12:12 35.444105 -107.696202 93 19692ft 405kts
18-Oct-20 12:13 35.435699 -107.562915 93 17867ft 372kts
18-Oct-20 12:14 35.427998 -107.441618 93 16160ft 350kts
18-Oct-20 12:15 35.405180 -107.329415 120 14851ft 337kts
18-Oct-20 12:16 35.356204 -107.233081 123 14073ft 330kts
18-Oct-20 12:17 35.307256 -107.137199 123 13895ft 325kts
18-Oct-20 12:18 35.250284 -107.056022 138 11223ft 299kts
18-Oct-20 12:19 35.192265 -106.990479 139 9881ft 280kts
18-Oct-20 12:20 35.137137 -106.926297 136 9051ft 255kts
18-Oct-20 12:21 35.093540 -106.871705 131 9072ft 216kts
18-Oct-20 12:22 35.065214 -106.805957 114 7906ft 217kts
18-Oct-20 12:23 35.045580 -106.739255 95 7264ft 211kts
18-Oct-20 12:24 35.044831 -106.673239 90 6224ft 165kts
18-Oct-20 12:25 35.044385 -106.616709 91 5337ft 164kts
18-Oct-20 12:26 35.045126 -106.596449 48 5328ft 11kts
18-Oct-20 12:27 35.045855 -106.598263 267 5327ft 22kts
18-Oct-20 12:28 35.045784 -106.606719 270 5323ft 24kts
18-Oct-20 12:29 35.046553 -106.613303 308 5322ft 6kts
18-Oct-20 12:30 35.047029 -106.614005 309 5320ft 0kts

Navigation Log

Ident Type
Flight plan parsing failed, navigation log unavailable